Time;durP1;ratioP1;P1;durP2;ratioP2;P2;SDS_P1;SDS_P2;PMS_P1;PMS_P2;Temp;Humidity;BMP_temperature;BMP_pressure;BME280_temperature;BME280_humidity;BME280_pressure;Samples;Min_cycle;Max_cycle;Signal;HPM_P1;HPM_P2
2023/07/15 00:00:12;;;;;;;2.65;1.40;;;22.80;66.20;;;;;;4980836;28;45151;-69
2023/07/15 00:02:39;;;;;;;8.02;1.40;;;22.90;65.30;;;;;;4981105;28;45206;-69
2023/07/15 00:05:14;;;;;;;2.17;1.17;;;22.80;65.80;;;;;;4982315;28;45140;-70
2023/07/15 00:07:43;;;;;;;5.00;1.40;;;22.90;66.60;;;;;;4981685;28;46566;-70
2023/07/15 00:10:10;;;;;;;6.15;1.77;;;22.80;65.60;;;;;;4982050;28;45364;-69
2023/07/15 00:12:36;;;;;;;2.95;1.50;;;22.80;66.30;;;;;;4976871;28;45372;-69
2023/07/15 00:15:05;;;;;;;2.10;1.33;;;22.80;67.10;;;;;;4978173;28;45332;-69
2023/07/15 00:17:32;;;;;;;2.42;1.42;;;22.80;67.40;;;;;;4981961;28;45370;-69
2023/07/15 00:19:58;;;;;;;2.13;1.30;;;22.70;66.40;;;;;;4981614;28;45689;-69
2023/07/15 00:22:25;;;;;;;2.33;1.27;;;22.70;66.70;;;;;;4973543;28;45122;-70
2023/07/15 00:24:53;;;;;;;2.03;1.20;;;22.70;66.20;;;;;;4980837;28;45348;-70
2023/07/15 00:27:20;;;;;;;2.45;1.45;;;22.70;66.70;;;;;;4981547;28;46429;-70
2023/07/15 00:29:47;;;;;;;3.22;1.20;;;22.70;66.90;;;;;;4980734;28;45208;-70
2023/07/15 00:32:15;;;;;;;3.58;1.40;;;22.70;66.30;;;;;;4983800;28;45399;-69
2023/07/15 00:34:42;;;;;;;2.78;1.20;;;22.70;66.30;;;;;;4981412;28;45263;-70
2023/07/15 00:37:09;;;;;;;2.17;1.50;;;22.70;66.60;;;;;;4981408;28;46217;-69
2023/07/15 00:39:36;;;;;;;3.35;1.40;;;22.70;66.30;;;;;;4981408;28;45473;-70
2023/07/15 00:42:14;;;;;;;3.00;1.10;;;22.70;66.90;;;;;;4981572;28;45188;-69
2023/07/15 00:44:40;;;;;;;3.05;1.23;;;22.70;66.20;;;;;;4973837;28;45318;-69
2023/07/15 00:47:25;;;;;;;2.03;0.90;;;22.70;68.70;;;;;;4972745;28;47499;-70
2023/07/15 00:49:53;;;;;;;1.80;0.93;;;22.90;68.60;;;;;;4978514;28;45366;-70
2023/07/15 00:52:21;;;;;;;2.13;0.90;;;23.00;68.70;;;;;;4972135;28;45295;-69
2023/07/15 00:54:52;;;;;;;1.23;0.70;;;23.00;68.70;;;;;;4972544;28;45368;-69
2023/07/15 00:57:20;;;;;;;1.98;0.93;;;23.10;68.90;;;;;;5014333;28;47911;-69
2023/07/15 00:59:51;;;;;;;1.40;0.90;;;23.10;69.10;;;;;;4989418;28;45227;-69
2023/07/15 01:02:20;;;;;;;1.90;1.17;;;23.20;69.20;;;;;;4984727;28;45308;-69
2023/07/15 01:04:47;;;;;;;1.83;0.90;;;23.20;69.50;;;;;;4977027;28;45223;-69
2023/07/15 01:07:15;;;;;;;1.17;0.90;;;23.20;69.40;;;;;;4981072;28;47364;-69
2023/07/15 01:09:42;;;;;;;1.58;0.90;;;23.20;69.60;;;;;;4967654;28;45258;-69
2023/07/15 01:12:09;;;;;;;1.67;0.73;;;23.20;69.90;;;;;;4984659;28;45232;-70
2023/07/15 01:14:37;;;;;;;1.25;0.80;;;23.20;70.20;;;;;;4983991;28;45345;-69
2023/07/15 01:17:05;;;;;;;1.70;1.10;;;23.30;70.10;;;;;;4995337;28;47488;-69
2023/07/15 01:19:33;;;;;;;2.45;1.20;;;23.30;69.80;;;;;;4986921;28;45258;-70
2023/07/15 01:22:00;;;;;;;1.98;0.88;;;23.30;71.00;;;;;;4974595;28;45286;-69
2023/07/15 01:24:29;;;;;;;1.90;1.02;;;23.30;71.70;;;;;;4983223;28;45070;-69
2023/07/15 01:26:59;;;;;;;1.55;0.90;;;23.20;70.90;;;;;;4980914;28;45292;-69
2023/07/15 01:29:27;;;;;;;1.23;0.93;;;23.20;72.70;;;;;;4980869;28;45173;-69
2023/07/15 01:31:55;;;;;;;2.08;0.98;;;23.30;71.60;;;;;;5003512;28;45223;-69
2023/07/15 01:34:21;;;;;;;2.88;0.85;;;23.20;72.60;;;;;;4994099;28;45087;-70
2023/07/15 01:36:48;;;;;;;1.13;0.75;;;23.20;71.30;;;;;;4979954;28;45411;-69
2023/07/15 01:39:15;;;;;;;1.25;0.90;;;23.30;71.30;;;;;;4981025;28;45319;-69
2023/07/15 01:41:44;;;;;;;1.48;0.90;;;23.30;70.90;;;;;;4965711;28;45227;-69
2023/07/15 01:44:11;;;;;;;0.95;0.80;;;23.30;71.00;;;;;;4981056;28;45473;-70
2023/07/15 01:46:39;;;;;;;2.92;1.40;;;23.30;70.50;;;;;;4980764;28;47363;-69
2023/07/15 01:49:07;;;;;;;1.40;0.80;;;23.30;70.50;;;;;;5000387;28;46241;-70
2023/07/15 01:51:34;;;;;;;3.05;1.20;;;23.30;70.60;;;;;;5020027;28;45080;-70
2023/07/15 01:54:01;;;;;;;2.05;1.30;;;23.30;70.50;;;;;;4980980;28;45105;-71
2023/07/15 01:56:28;;;;;;;1.83;1.00;;;23.30;70.40;;;;;;4972162;28;45431;-69
2023/07/15 01:58:56;;;;;;;1.05;0.85;;;23.30;70.50;;;;;;5013174;28;45192;-70
2023/07/15 02:01:23;;;;;;;1.85;0.85;;;23.30;70.30;;;;;;5014063;28;45191;-70
2023/07/15 02:03:50;;;;;;;2.25;1.00;;;23.40;70.60;;;;;;4995194;28;45121;-69
2023/07/15 02:06:17;;;;;;;3.35;1.00;;;23.30;70.30;;;;;;5025753;28;46368;-70
2023/07/15 02:08:44;;;;;;;1.23;1.00;;;23.30;70.40;;;;;;4992272;28;45313;-69
2023/07/15 02:11:11;;;;;;;1.85;0.85;;;23.30;70.40;;;;;;4993720;28;45153;-69
2023/07/15 02:13:38;;;;;;;2.10;1.05;;;23.30;71.60;;;;;;5010449;28;45528;-70
2023/07/15 02:16:06;;;;;;;1.20;1.00;;;23.30;70.70;;;;;;4981236;28;48455;-69
2023/07/15 02:18:33;;;;;;;1.23;0.80;;;23.30;70.80;;;;;;4979538;28;45127;-70
2023/07/15 02:20:59;;;;;;;0.90;0.80;;;23.30;70.80;;;;;;4979996;28;45164;-69
2023/07/15 02:23:27;;;;;;;1.55;0.82;;;23.30;71.00;;;;;;5007934;28;45308;-69
2023/07/15 02:25:53;;;;;;;1.77;0.85;;;23.20;71.00;;;;;;4981705;28;48042;-69
2023/07/15 02:28:22;;;;;;;1.70;0.80;;;23.30;71.10;;;;;;4980056;28;45132;-70
2023/07/15 02:30:49;;;;;;;3.22;1.35;;;23.30;71.00;;;;;;4979559;28;45179;-69
2023/07/15 02:33:17;;;;;;;1.33;0.80;;;23.30;70.90;;;;;;5012598;28;45285;-69
2023/07/15 02:35:44;;;;;;;1.65;0.90;;;23.30;70.70;;;;;;4980054;28;46253;-70
2023/07/15 02:38:11;;;;;;;1.23;0.90;;;23.30;70.70;;;;;;4980407;28;45093;-69
2023/07/15 02:40:37;;;;;;;2.50;1.42;;;23.30;70.70;;;;;;5013194;28;45075;-69
2023/07/15 02:43:04;;;;;;;4.25;1.02;;;23.20;70.90;;;;;;4965225;28;45224;-70
2023/07/15 02:45:31;;;;;;;1.02;0.90;;;23.30;70.80;;;;;;4980059;28;46270;-69
2023/07/15 02:47:58;;;;;;;1.30;1.00;;;23.30;70.70;;;;;;4980028;28;45266;-69
2023/07/15 02:50:26;;;;;;;1.75;0.82;;;23.30;70.70;;;;;;4965319;28;45220;-70
2023/07/15 02:52:53;;;;;;;1.35;0.90;;;23.30;70.70;;;;;;4980000;28;45173;-70
2023/07/15 02:55:20;;;;;;;1.80;0.80;;;23.20;70.80;;;;;;5014174;28;45131;-69
2023/07/15 02:57:47;;;;;;;1.55;0.88;;;23.30;71.00;;;;;;4979756;28;45186;-69
2023/07/15 03:00:15;;;;;;;1.48;0.98;;;23.20;70.80;;;;;;4988364;28;45051;-69
2023/07/15 03:02:44;;;;;;;1.30;0.90;;;23.20;71.20;;;;;;5019034;28;45098;-69
2023/07/15 03:05:11;;;;;;;1.27;0.90;;;23.20;71.40;;;;;;4979872;28;46266;-69
2023/07/15 03:07:40;;;;;;;1.50;1.10;;;23.20;71.40;;;;;;4981271;28;45083;-69
2023/07/15 03:10:08;;;;;;;2.38;1.10;;;23.20;71.00;;;;;;4982407;28;45113;-70
2023/07/15 03:12:34;;;;;;;2.53;1.00;;;23.20;71.50;;;;;;4974556;28;45126;-71
2023/07/15 03:15:01;;;;;;;4.25;1.40;;;23.20;69.80;;;;;;4978875;28;47227;-70
2023/07/15 03:17:35;;;;;;;3.00;1.20;;;23.10;68.40;;;;;;5014222;28;45118;-69
2023/07/15 03:20:04;;;;;;;1.30;1.02;;;23.00;70.50;;;;;;5009590;28;45261;-69
2023/07/15 03:22:31;;;;;;;1.60;1.00;;;23.10;71.80;;;;;;4982625;28;45032;-70
2023/07/15 03:24:59;;;;;;;2.92;1.02;;;23.10;71.30;;;;;;5016978;28;47345;-69
2023/07/15 03:27:26;;;;;;;4.40;1.45;;;23.00;67.30;;;;;;4982486;28;45764;-70
2023/07/15 03:29:54;;;;;;;1.63;0.88;;;22.90;70.80;;;;;;4982045;28;45138;-70
2023/07/15 03:32:22;;;;;;;1.52;1.10;;;23.00;70.30;;;;;;4982841;28;45452;-69
2023/07/15 03:34:49;;;;;;;2.80;1.20;;;23.00;70.80;;;;;;4982194;28;47292;-69
2023/07/15 03:37:16;;;;;;;2.17;1.02;;;23.00;70.70;;;;;;4974229;28;45161;-69
2023/07/15 03:39:43;;;;;;;4.78;1.20;;;23.00;67.90;;;;;;4973977;28;45315;-69
2023/07/15 03:42:12;;;;;;;3.85;1.42;;;23.00;66.10;;;;;;4982474;28;45288;-69
2023/07/15 03:44:38;;;;;;;2.58;1.02;;;22.90;66.80;;;;;;4982388;28;47202;-69
2023/07/15 03:47:05;;;;;;;4.53;1.40;;;22.90;68.70;;;;;;4973757;28;45580;-70
2023/07/15 03:49:32;;;;;;;2.25;1.30;;;22.70;68.20;;;;;;4982355;28;45186;-70
2023/07/15 03:51:59;;;;;;;2.40;1.20;;;22.60;68.40;;;;;;5009005;28;45610;-69
2023/07/15 03:54:26;;;;;;;4.50;1.80;;;22.50;67.80;;;;;;4981828;28;46284;-69
2023/07/15 03:56:52;;;;;;;2.42;1.48;;;22.50;68.50;;;;;;5016759;28;45279;-70
2023/07/15 03:59:21;;;;;;;2.38;1.30;;;22.60;67.60;;;;;;4983923;28;45228;-69
2023/07/15 04:01:47;;;;;;;2.25;1.17;;;22.50;68.80;;;;;;4979834;28;45275;-69
2023/07/15 04:04:14;;;;;;;3.13;1.30;;;22.40;69.10;;;;;;4986576;28;47209;-69
2023/07/15 04:06:41;;;;;;;2.97;1.35;;;22.40;69.70;;;;;;4973295;28;45173;-69
2023/07/15 04:09:11;;;;;;;3.13;1.27;;;22.50;70.50;;;;;;4972362;28;45259;-70
2023/07/15 04:11:38;;;;;;;2.63;1.42;;;22.40;68.90;;;;;;4994002;28;45170;-69
2023/07/15 04:14:04;;;;;;;4.53;1.50;;;22.40;69.40;;;;;;4975632;28;46235;-69
2023/07/15 04:16:32;;;;;;;3.53;1.23;;;22.50;70.70;;;;;;4981812;28;45663;-69
2023/07/15 04:18:59;;;;;;;1.55;1.10;;;22.60;71.70;;;;;;4995610;28;45191;-69
2023/07/15 04:21:26;;;;;;;2.70;1.23;;;22.70;71.70;;;;;;5000751;28;45237;-69
2023/07/15 04:23:53;;;;;;;2.67;1.48;;;22.70;70.70;;;;;;4981733;28;47256;-69
2023/07/15 04:26:24;;;;;;;0.95;0.80;;;22.80;70.40;;;;;;4981676;28;45228;-70
2023/07/15 04:28:50;;;;;;;1.30;1.00;;;22.90;71.70;;;;;;4973889;28;45168;-69
2023/07/15 04:31:17;;;;;;;1.67;1.30;;;22.90;69.70;;;;;;4981706;28;45233;-69
2023/07/15 04:33:46;;;;;;;3.85;1.10;;;22.70;68.20;;;;;;4981507;28;46391;-69
2023/07/15 04:36:13;;;;;;;4.93;1.40;;;22.70;70.70;;;;;;4981421;28;45692;-70
2023/07/15 04:38:40;;;;;;;1.70;1.17;;;22.60;67.80;;;;;;4973875;28;45207;-70
2023/07/15 04:41:07;;;;;;;2.20;1.00;;;22.60;70.60;;;;;;4982009;28;45190;-69
2023/07/15 04:43:34;;;;;;;2.83;1.23;;;22.60;70.80;;;;;;4981660;28;46207;-69
2023/07/15 04:46:01;;;;;;;2.17;1.23;;;22.60;69.30;;;;;;5004702;28;45218;-70
2023/07/15 04:48:28;;;;;;;1.65;1.17;;;22.50;71.00;;;;;;4969287;28;45224;-69
2023/07/15 04:50:57;;;;;;;3.65;1.42;;;22.60;69.90;;;;;;4983710;28;45374;-70
2023/07/15 04:53:25;;;;;;;3.85;1.50;;;22.50;70.00;;;;;;4981542;28;47053;-69
2023/07/15 04:55:52;;;;;;;2.83;1.00;;;22.40;69.90;;;;;;4978718;28;45660;-69
2023/07/15 04:58:19;;;;;;;1.50;1.00;;;22.50;70.80;;;;;;4973612;28;45087;-69
2023/07/15 05:00:46;;;;;;;3.70;1.20;;;22.50;72.10;;;;;;4981033;28;45171;-69
2023/07/15 05:03:13;;;;;;;2.88;1.27;;;22.60;71.10;;;;;;5007951;28;46555;-69
2023/07/15 05:05:41;;;;;;;2.28;1.15;;;22.70;70.50;;;;;;4992540;28;45767;-69
2023/07/15 05:08:15;;;;;;;2.15;1.15;;;22.70;69.40;;;;;;4981198;28;45117;-69
2023/07/15 05:10:42;;;;;;;2.47;1.10;;;22.70;71.40;;;;;;4978006;28;45297;-70
2023/07/15 05:13:09;;;;;;;2.28;1.10;;;22.70;70.50;;;;;;4989423;28;47233;-69
2023/07/15 05:15:37;;;;;;;3.05;1.27;;;22.70;70.80;;;;;;4983923;28;45222;-70
2023/07/15 05:18:04;;;;;;;2.78;1.20;;;22.80;71.80;;;;;;4981354;28;45193;-69
2023/07/15 05:20:33;;;;;;;2.20;1.30;;;22.80;71.50;;;;;;4981064;28;45434;-69
2023/07/15 05:23:00;;;;;;;3.28;1.33;;;22.80;71.00;;;;;;4969781;28;45360;-69
2023/07/15 05:25:29;;;;;;;4.43;0.88;;;22.80;70.50;;;;;;5005637;28;45283;-69
2023/07/15 05:27:56;;;;;;;1.58;0.95;;;22.90;71.50;;;;;;4975651;28;45144;-68
2023/07/15 05:30:23;;;;;;;4.30;1.20;;;22.90;72.10;;;;;;5004138;28;45325;-70
2023/07/15 05:32:50;;;;;;;2.40;1.35;;;22.90;70.80;;;;;;4987252;28;45263;-69
2023/07/15 05:35:17;;;;;;;3.35;1.10;;;22.80;71.40;;;;;;5015057;28;45195;-69
2023/07/15 05:37:44;;;;;;;3.55;1.30;;;22.80;72.60;;;;;;4980764;28;45135;-69
2023/07/15 05:40:12;;;;;;;2.83;1.00;;;22.70;72.50;;;;;;4976361;28;45158;-69
2023/07/15 05:42:41;;;;;;;2.53;1.27;;;22.60;72.80;;;;;;4963735;28;46237;-69
2023/07/15 05:45:08;;;;;;;7.20;1.30;;;22.60;73.00;;;;;;4998956;28;45267;-69
2023/07/15 05:47:35;;;;;;;1.92;1.25;;;22.60;72.90;;;;;;4993206;28;45196;-69
2023/07/15 05:50:02;;;;;;;1.83;1.23;;;22.70;73.60;;;;;;4972598;28;45269;-69
2023/07/15 05:52:29;;;;;;;3.78;1.20;;;22.70;73.60;;;;;;4981096;28;46049;-69
2023/07/15 05:54:56;;;;;;;2.42;1.60;;;22.70;76.70;;;;;;4980779;28;45193;-70
2023/07/15 05:57:23;;;;;;;1.90;1.25;;;22.70;72.10;;;;;;5015448;28;45372;-69
2023/07/15 05:59:51;;;;;;;2.35;1.10;;;22.80;74.40;;;;;;4978767;28;45133;-71
2023/07/15 06:02:18;;;;;;;3.58;1.40;;;22.90;72.90;;;;;;4977492;28;47239;-69
2023/07/15 06:04:45;;;;;;;1.58;1.17;;;22.90;71.20;;;;;;4983066;28;45351;-70
2023/07/15 06:07:12;;;;;;;3.33;1.10;;;22.90;71.80;;;;;;5000831;28;45362;-69
2023/07/15 06:09:38;;;;;;;2.75;1.10;;;22.90;72.70;;;;;;4992078;28;45239;-69
2023/07/15 06:12:06;;;;;;;3.90;1.33;;;23.00;73.20;;;;;;4978014;28;47149;-69
2023/07/15 06:14:33;;;;;;;1.88;1.00;;;23.00;72.00;;;;;;4978242;28;46063;-69
2023/07/15 06:17:01;;;;;;;1.25;0.95;;;23.00;73.30;;;;;;4972598;28;45157;-70
2023/07/15 06:19:28;;;;;;;1.25;0.60;;;23.00;74.00;;;;;;4976187;28;45318;-69
2023/07/15 06:21:54;;;;;;;1.20;0.85;;;23.10;73.60;;;;;;4979992;28;47957;-69
2023/07/15 06:24:21;;;;;;;1.38;0.80;;;23.10;72.70;;;;;;5008727;28;45158;-69
2023/07/15 06:26:48;;;;;;;1.02;0.80;;;23.20;72.60;;;;;;4978790;28;45174;-70
2023/07/15 06:29:15;;;;;;;0.68;0.68;;;23.20;72.50;;;;;;4976474;28;45307;-69
2023/07/15 06:31:42;;;;;;;1.45;0.80;;;23.20;72.10;;;;;;4979245;28;45247;-70
2023/07/15 06:34:10;;;;;;;0.75;0.55;;;23.20;73.80;;;;;;4981299;28;45577;-69
2023/07/15 06:36:37;;;;;;;0.98;0.70;;;23.20;72.30;;;;;;4981258;28;45289;-69
2023/07/15 06:39:04;;;;;;;1.48;0.70;;;23.20;72.40;;;;;;5012260;28;45273;-69
2023/07/15 06:41:30;;;;;;;1.08;0.93;;;23.20;72.30;;;;;;4971236;28;45279;-69
2023/07/15 06:43:57;;;;;;;0.88;0.70;;;23.20;72.50;;;;;;4978868;28;45698;-69
2023/07/15 06:46:25;;;;;;;0.73;0.70;;;23.20;72.40;;;;;;4980392;28;45286;-69
2023/07/15 06:48:52;;;;;;;0.98;0.80;;;23.20;72.30;;;;;;4991544;28;45216;-70
2023/07/15 06:51:21;;;;;;;0.80;0.65;;;23.20;72.20;;;;;;5007234;28;45247;-69
2023/07/15 06:53:48;;;;;;;0.93;0.70;;;23.20;72.60;;;;;;4985783;28;45991;-70
2023/07/15 06:56:14;;;;;;;1.33;1.10;;;23.20;72.80;;;;;;5016006;28;45141;-69
2023/07/15 06:58:41;;;;;;;0.70;0.70;;;23.20;73.30;;;;;;4971714;28;45172;-69
2023/07/15 07:01:08;;;;;;;2.38;0.85;;;23.20;72.70;;;;;;4993727;28;46373;-69
2023/07/15 07:03:35;;;;;;;1.73;0.90;;;23.20;72.70;;;;;;4995766;28;45144;-69
2023/07/15 07:06:02;;;;;;;1.02;0.80;;;23.20;72.90;;;;;;4980042;28;45279;-69
2023/07/15 07:08:30;;;;;;;0.82;0.63;;;23.20;73.00;;;;;;5002227;28;45279;-69
2023/07/15 07:10:57;;;;;;;1.08;0.88;;;23.20;73.10;;;;;;4980896;28;46377;-69
2023/07/15 07:13:24;;;;;;;1.95;0.80;;;23.20;73.10;;;;;;4978027;28;45115;-69
2023/07/15 07:15:51;;;;;;;5.97;1.20;;;23.20;73.00;;;;;;4973960;28;45287;-70
2023/07/15 07:18:18;;;;;;;0.77;0.77;;;23.20;71.60;;;;;;4967949;28;45235;-71
2023/07/15 07:20:45;;;;;;;2.45;1.02;;;23.20;72.70;;;;;;4974069;28;46216;-71
2023/07/15 07:23:12;;;;;;;1.00;0.70;;;23.20;73.20;;;;;;4979680;28;45309;-70
2023/07/15 07:25:43;;;;;;;1.17;0.80;;;23.20;73.30;;;;;;4981689;28;45200;-71
2023/07/15 07:28:09;;;;;;;1.27;0.73;;;23.20;73.40;;;;;;4989645;28;45199;-72
2023/07/15 07:30:36;;;;;;;1.77;0.95;;;23.20;73.60;;;;;;4997083;27;46224;-70
2023/07/15 07:33:03;;;;;;;0.80;0.77;;;23.20;73.80;;;;;;4979679;28;45350;-70
2023/07/15 07:35:30;;;;;;;0.93;0.77;;;23.20;73.70;;;;;;5013777;28;45326;-71
2023/07/15 07:37:56;;;;;;;1.60;0.80;;;23.20;73.60;;;;;;4976965;28;45162;-70
2023/07/15 07:40:23;;;;;;;2.40;0.90;;;23.20;73.80;;;;;;4975117;28;47214;-69
2023/07/15 07:42:51;;;;;;;1.00;0.80;;;23.20;73.70;;;;;;4969825;28;45685;-70
2023/07/15 07:45:18;;;;;;;1.27;0.70;;;23.20;73.80;;;;;;4977638;28;45290;-71
2023/07/15 07:47:45;;;;;;;0.70;0.70;;;23.20;73.80;;;;;;4969300;28;45362;-70
2023/07/15 07:50:12;;;;;;;1.20;0.75;;;23.20;73.60;;;;;;4972812;28;45286;-70
2023/07/15 07:52:39;;;;;;;2.80;0.95;;;23.20;73.70;;;;;;4997271;27;45167;-71
2023/07/15 07:55:07;;;;;;;1.30;0.90;;;23.20;73.70;;;;;;4982134;28;45196;-70
2023/07/15 07:57:33;;;;;;;2.00;1.00;;;23.20;73.80;;;;;;4982795;28;45117;-70
2023/07/15 08:00:01;;;;;;;1.95;1.00;;;23.30;73.90;;;;;;4988416;28;45169;-70
2023/07/15 08:02:28;;;;;;;1.10;0.80;;;23.20;73.90;;;;;;5001117;28;45237;-70
2023/07/15 08:04:55;;;;;;;0.95;0.70;;;23.20;74.00;;;;;;4983817;28;45086;-71
2023/07/15 08:07:23;;;;;;;1.05;0.80;;;23.20;74.20;;;;;;5016677;28;45460;-71
2023/07/15 08:09:49;;;;;;;2.28;0.93;;;23.20;74.30;;;;;;4980507;28;47417;-69
2023/07/15 08:12:18;;;;;;;0.73;0.65;;;23.30;74.50;;;;;;4969207;28;45295;-70
2023/07/15 08:14:45;;;;;;;1.80;0.90;;;23.20;74.60;;;;;;5001986;28;45201;-69
2023/07/15 08:17:13;;;;;;;3.63;0.93;;;23.30;74.70;;;;;;5012409;28;45204;-70
2023/07/15 08:19:40;;;;;;;1.63;1.00;;;23.30;74.70;;;;;;4978092;28;47994;-70
2023/07/15 08:22:07;;;;;;;1.77;0.95;;;23.30;74.90;;;;;;4985715;28;45277;-70
2023/07/15 08:24:34;;;;;;;2.47;1.10;;;23.30;74.90;;;;;;4981776;28;45246;-72
2023/07/15 08:27:02;;;;;;;4.03;0.80;;;23.30;74.70;;;;;;4975060;28;45111;-72
2023/07/15 08:29:29;;;;;;;2.60;1.10;;;23.30;75.20;;;;;;4973594;28;47335;-72
2023/07/15 08:31:56;;;;;;;1.17;0.88;;;23.40;75.50;;;;;;4978908;28;45435;-72
2023/07/15 08:34:24;;;;;;;1.67;0.80;;;23.40;75.50;;;;;;4977607;28;45147;-72
2023/07/15 08:36:52;;;;;;;1.60;0.80;;;23.40;75.80;;;;;;4979348;28;45300;-71
2023/07/15 08:39:18;;;;;;;6.22;1.20;;;23.40;76.30;;;;;;4981801;28;46734;-71
2023/07/15 08:41:46;;;;;;;6.78;1.10;;;23.40;76.60;;;;;;4995674;28;45073;-73
2023/07/15 08:44:14;;;;;;;5.35;0.80;;;23.40;75.20;;;;;;5017639;28;45301;-73
2023/07/15 08:46:42;;;;;;;1.83;1.00;;;23.60;81.40;;;;;;4970954;28;45204;-73
2023/07/15 08:49:09;;;;;;;1.73;0.80;;;23.50;80.00;;;;;;5010943;28;46612;-70
2023/07/15 08:51:39;;;;;;;3.92;0.90;;;23.60;81.40;;;;;;4969560;28;45195;-73
2023/07/15 08:54:07;;;;;;;1.50;0.80;;;23.70;82.80;;;;;;4974180;28;45236;-73
2023/07/15 08:56:35;;;;;;;9.23;1.25;;;23.50;87.00;;;;;;4981988;28;45276;-73
2023/07/15 08:59:04;;;;;;;4.55;1.40;;;23.30;91.30;;;;;;4995389;28;45397;-72
2023/07/15 09:01:31;;;;;;;4.28;1.05;;;23.20;95.90;;;;;;4979049;28;45252;-72
2023/07/15 09:03:57;;;;;;;2.33;1.10;;;23.00;97.60;;;;;;4983039;28;45224;-72
2023/07/15 09:06:25;;;;;;;2.63;1.30;;;22.90;98.10;;;;;;4982969;28;45484;-71
2023/07/15 09:08:53;;;;;;;2.78;0.90;;;22.80;97.10;;;;;;4981049;28;48151;-72
2023/07/15 09:11:20;;;;;;;3.53;1.00;;;22.80;98.30;;;;;;4996278;28;45495;-73
2023/07/15 09:13:47;;;;;;;1.60;1.13;;;22.70;99.20;;;;;;4989484;28;45304;-73
2023/07/15 09:16:14;;;;;;;2.10;1.30;;;22.60;98.20;;;;;;4993180;28;45243;-73
2023/07/15 09:18:42;;;;;;;5.38;1.20;;;22.70;98.10;;;;;;4978412;28;46978;-73
2023/07/15 09:21:10;;;;;;;3.00;1.20;;;22.60;98.80;;;;;;4975751;28;45086;-72
2023/07/15 09:23:42;;;;;;;4.78;1.55;;;22.60;99.20;;;;;;4973736;28;45308;-72
2023/07/15 09:26:11;;;;;;;2.55;1.50;;;22.60;99.90;;;;;;5011340;28;45223;-72
2023/07/15 09:28:38;;;;;;;7.90;1.70;;;22.60;99.90;;;;;;5013317;28;47344;-72
2023/07/15 09:31:05;;;;;;;3.50;1.15;;;22.60;99.90;;;;;;4981237;28;45059;-72
2023/07/15 09:33:35;;;;;;;2.38;1.30;;;22.50;99.90;;;;;;5004706;28;45439;-71
2023/07/15 09:36:02;;;;;;;2.00;1.10;;;22.40;99.90;;;;;;5014984;28;45225;-72
2023/07/15 09:38:33;;;;;;;2.47;1.30;;;22.50;99.90;;;;;;4987616;28;46366;-72
2023/07/15 09:41:01;;;;;;;3.80;1.23;;;22.40;99.90;;;;;;4995088;28;45086;-72
2023/07/15 09:43:48;;;;;;;2.95;1.33;;;22.50;99.90;;;;;;5008211;27;45129;-72
2023/07/15 09:46:17;;;;;;;2.70;1.42;;;22.50;99.90;;;;;;4981272;28;45204;-73
2023/07/15 09:48:45;;;;;;;3.40;1.40;;;22.40;99.90;;;;;;4973798;28;46521;-72
2023/07/15 09:51:13;;;;;;;3.45;1.30;;;22.20;99.90;;;;;;4970885;28;45264;-73
2023/07/15 09:53:43;;;;;;;4.15;1.60;;;22.30;99.90;;;;;;4969174;28;45405;-73
2023/07/15 09:56:11;;;;;;;3.33;1.58;;;22.30;99.90;;;;;;4981125;28;45509;-73
2023/07/15 09:58:40;;;;;;;2.60;1.35;;;22.30;99.90;;;;;;4981072;28;48216;-72
2023/07/15 10:01:13;;;;;;;4.70;1.63;;;22.40;99.90;;;;;;4987455;28;45157;-73
2023/07/15 10:03:43;;;;;;;1.52;1.25;;;22.40;99.90;;;;;;4983331;28;45295;-72
2023/07/15 10:06:11;;;;;;;4.10;1.55;;;22.40;99.90;;;;;;4989651;28;45369;-73
2023/07/15 10:08:38;;;;;;;5.20;1.58;;;22.50;99.90;;;;;;4989571;28;46989;-73
2023/07/15 10:11:06;;;;;;;3.38;1.73;;;22.50;99.90;;;;;;4964539;28;45216;-73
2023/07/15 10:13:34;;;;;;;3.33;1.42;;;22.50;99.90;;;;;;4973047;28;45157;-73
2023/07/15 10:16:02;;;;;;;6.32;2.15;;;22.50;99.90;;;;;;4981246;28;45329;-73
2023/07/15 10:18:32;;;;;;;5.43;2.22;;;22.50;99.90;;;;;;4970837;28;47893;-73
2023/07/15 10:21:02;;;;;;;2.95;1.77;;;22.60;99.90;;;;;;5012456;28;45302;-73
2023/07/15 10:23:31;;;;;;;4.00;1.85;;;22.50;99.90;;;;;;4961921;28;45231;-73
2023/07/15 10:25:59;;;;;;;4.88;1.80;;;22.50;99.90;;;;;;4964134;28;45633;-73
2023/07/15 10:28:29;;;;;;;2.38;1.67;;;22.60;99.90;;;;;;4981217;28;46847;-74
2023/07/15 10:31:17;;;;;;;4.78;1.63;;;22.60;99.90;;;;;;4970929;28;45204;-73
2023/07/15 10:33:55;;;;;;;3.60;1.63;;;22.70;99.90;;;;;;4967688;28;45205;-72
2023/07/15 10:36:41;;;;;;;4.10;2.00;;;22.70;99.90;;;;;;4974364;28;45224;-73
2023/07/15 10:39:13;;;;;;;2.85;1.75;;;22.70;99.90;;;;;;4972963;28;47216;-73
2023/07/15 10:41:41;;;;;;;3.78;1.90;;;22.80;99.90;;;;;;4973209;28;45160;-74
2023/07/15 10:44:22;;;;;;;2.50;1.65;;;22.80;99.90;;;;;;4973709;28;45146;-73
2023/07/15 10:46:51;;;;;;;3.17;1.70;;;22.80;99.90;;;;;;5015205;28;45237;-73
2023/07/15 10:49:21;;;;;;;4.45;2.10;;;22.90;99.90;;;;;;4975946;28;47306;-72
2023/07/15 10:51:50;;;;;;;8.98;1.92;;;22.90;99.90;;;;;;4978408;28;46006;-72
2023/07/15 10:54:20;;;;;;;5.43;2.58;;;22.90;99.90;;;;;;4981650;28;45304;-73
2023/07/15 10:56:47;;;;;;;4.93;2.30;;;22.90;99.90;;;;;;4979693;28;45218;-72
2023/07/15 10:59:13;;;;;;;2.38;1.30;;;23.00;99.90;;;;;;4963956;28;46344;-72
2023/07/15 11:01:40;;;;;;;2.75;1.38;;;23.00;99.90;;;;;;4980116;28;45117;-72
2023/07/15 11:04:07;;;;;;;3.50;1.50;;;23.00;99.90;;;;;;4964386;28;45265;-72
2023/07/15 11:06:36;;;;;;;3.72;1.60;;;23.00;99.90;;;;;;5035955;28;45203;-72
2023/07/15 11:09:16;;;;;;;4.18;1.55;;;23.00;99.90;;;;;;4965271;28;47048;-72
2023/07/15 11:11:42;;;;;;;3.20;1.33;;;23.00;99.90;;;;;;4980024;28;45252;-72
2023/07/15 11:14:23;;;;;;;5.18;1.73;;;23.00;99.90;;;;;;4991682;28;45135;-72
2023/07/15 11:16:51;;;;;;;2.17;1.10;;;23.10;99.90;;;;;;4970821;28;45292;-72
2023/07/15 11:19:18;;;;;;;2.88;1.65;;;23.10;99.90;;;;;;4965115;28;46935;-72
2023/07/15 11:21:47;;;;;;;2.35;1.17;;;23.10;99.90;;;;;;4971608;28;45241;-72
2023/07/15 11:24:14;;;;;;;7.00;2.13;;;23.10;99.90;;;;;;4960335;28;45247;-72
2023/07/15 11:26:41;;;;;;;3.47;1.15;;;23.10;99.90;;;;;;4968105;28;45418;-72
2023/07/15 11:29:16;;;;;;;2.30;1.30;;;23.20;99.90;;;;;;4980809;28;46269;-72
2023/07/15 11:31:43;;;;;;;3.45;1.98;;;23.20;99.90;;;;;;5009309;28;45194;-71
2023/07/15 11:34:11;;;;;;;3.60;2.00;;;23.20;99.90;;;;;;4975204;28;45189;-71
2023/07/15 11:36:38;;;;;;;5.32;3.33;;;23.20;99.90;;;;;;4982527;28;45146;-71
2023/07/15 11:39:06;;;;;;;7.00;3.13;;;23.10;99.90;;;;;;4982372;28;48147;-71
2023/07/15 11:41:33;;;;;;;7.85;2.97;;;23.00;99.90;;;;;;4973561;28;45193;-71
2023/07/15 11:44:00;;;;;;;6.68;3.15;;;23.00;99.90;;;;;;5015355;28;45157;-71
2023/07/15 11:46:28;;;;;;;3.78;2.13;;;22.90;99.90;;;;;;4984385;28;45220;-71
2023/07/15 11:48:59;;;;;;;4.93;1.75;;;23.00;99.90;;;;;;4974162;28;47183;-71
2023/07/15 11:51:26;;;;;;;5.40;2.28;;;23.00;99.90;;;;;;5016503;28;45201;-71
2023/07/15 11:53:54;;;;;;;4.15;2.30;;;23.10;99.90;;;;;;4987117;28;45333;-71
2023/07/15 11:56:43;;;;;;;2.92;1.35;;;23.00;99.90;;;;;;4996726;28;45458;-72
2023/07/15 11:59:11;;;;;;;4.05;1.65;;;23.00;99.90;;;;;;5006560;28;46205;-71
2023/07/15 12:01:40;;;;;;;2.83;1.63;;;23.10;99.90;;;;;;4986078;28;45962;-71
2023/07/15 12:04:14;;;;;;;3.60;1.60;;;23.10;99.90;;;;;;5013720;28;45180;-71
2023/07/15 12:06:48;;;;;;;2.92;1.17;;;23.10;99.90;;;;;;4980737;28;45163;-71
2023/07/15 12:09:15;;;;;;;2.65;1.67;;;23.10;99.90;;;;;;5009055;28;48582;-71
2023/07/15 12:11:44;;;;;;;4.18;2.00;;;23.10;99.90;;;;;;5015307;28;45161;-71
2023/07/15 12:14:12;;;;;;;4.10;1.60;;;23.10;99.90;;;;;;4976773;28;45246;-71
2023/07/15 12:16:40;;;;;;;2.78;1.50;;;23.20;99.90;;;;;;4981205;28;45458;-72
2023/07/15 12:19:11;;;;;;;4.95;2.05;;;23.10;99.70;;;;;;4981975;28;45302;-72
2023/07/15 12:21:38;;;;;;;2.95;1.73;;;23.20;99.80;;;;;;4974057;28;45214;-71
2023/07/15 12:24:05;;;;;;;2.75;1.60;;;23.20;99.90;;;;;;4981925;28;45160;-71
2023/07/15 12:26:32;;;;;;;3.72;1.77;;;23.20;99.90;;;;;;4975346;28;45231;-71
2023/07/15 12:29:01;;;;;;;2.22;1.50;;;23.20;99.90;;;;;;4980824;28;45388;-71
2023/07/15 12:31:28;;;;;;;2.55;1.35;;;23.10;99.10;;;;;;4967375;28;45240;-73
2023/07/15 12:33:54;;;;;;;3.00;1.50;;;23.20;99.70;;;;;;4979182;28;45107;-71
2023/07/15 12:36:21;;;;;;;3.75;1.42;;;23.20;99.90;;;;;;5011361;28;45599;-71
2023/07/15 12:38:48;;;;;;;2.75;1.30;;;23.20;99.90;;;;;;4985636;28;46588;-72
2023/07/15 12:41:15;;;;;;;2.72;1.15;;;23.20;99.20;;;;;;4999117;28;45953;-71
2023/07/15 12:43:42;;;;;;;4.13;1.50;;;23.20;99.10;;;;;;4962472;28;45272;-72
2023/07/15 12:46:10;;;;;;;2.58;1.30;;;23.20;99.30;;;;;;4978767;28;45116;-71
2023/07/15 12:48:38;;;;;;;1.42;1.10;;;23.20;98.70;;;;;;4970182;28;45447;-71
2023/07/15 12:51:05;;;;;;;2.17;1.20;;;23.20;98.50;;;;;;4985735;28;45264;-71